Time;durP1;ratioP1;P1;durP2;ratioP2;P2;SDS_P1;SDS_P2;PMS_P1;PMS_P2;Temp;Humidity;BMP_temperature;BMP_pressure;BME280_temperature;BME280_humidity;BME280_pressure;Samples;Min_cycle;Max_cycle;Signal;HPM_P1;HPM_P2
2023/08/11 00:00:38;;;;;;;2.60;2.40;;;;;;;25.44;67.94;101277.00;4994587;28;20042;-81
2023/08/11 00:03:05;;;;;;;2.53;2.40;;;;;;;25.49;67.76;101271.13;4993358;28;20057;-82
2023/08/11 00:05:36;;;;;;;2.58;2.38;;;;;;;25.55;67.52;101273.66;4993909;28;20050;-82
2023/08/11 00:08:08;;;;;;;4.30;2.35;;;;;;;25.46;67.64;101273.84;4976525;28;20050;-82
2023/08/11 00:10:36;;;;;;;3.42;2.20;;;;;;;25.51;67.62;101276.34;4994129;28;20494;-81
2023/08/11 00:13:06;;;;;;;3.30;2.40;;;;;;;25.46;67.65;101277.44;4977036;28;20054;-82
2023/08/11 00:15:39;;;;;;;3.03;2.53;;;;;;;25.43;67.78;101277.38;4993326;28;20066;-82
2023/08/11 00:18:09;;;;;;;2.70;2.50;;;;;;;25.43;67.99;101269.78;4994137;28;20049;-82
2023/08/11 00:20:37;;;;;;;2.40;2.25;;;;;;;25.28;68.00;101274.25;4992806;28;20047;-82
2023/08/11 00:23:05;;;;;;;3.10;2.80;;;;;;;25.35;68.13;101273.59;4994202;28;20042;-82
2023/08/11 00:25:33;;;;;;;4.35;2.40;;;;;;;25.36;67.92;101275.19;4993455;28;20049;-82
2023/08/11 00:28:01;;;;;;;3.78;2.30;;;;;;;25.31;68.12;101272.72;4992960;28;20054;-82
2023/08/11 00:30:29;;;;;;;2.50;2.25;;;;;;;25.30;68.52;101276.66;4975924;28;20072;-81
2023/08/11 00:32:57;;;;;;;3.83;2.10;;;;;;;25.30;68.47;101276.66;4975909;28;20054;-81
2023/08/11 00:35:27;;;;;;;2.40;2.20;;;;;;;25.34;67.97;101281.19;4975091;28;20061;-82
2023/08/11 00:37:56;;;;;;;2.63;2.42;;;;;;;25.31;67.64;101283.91;4975110;28;20386;-81
2023/08/11 00:40:24;;;;;;;2.63;2.42;;;;;;;25.31;68.29;101275.50;4972789;28;20486;-82
2023/08/11 00:42:52;;;;;;;2.88;2.58;;;;;;;25.38;68.08;101278.47;4973118;28;20050;-82
2023/08/11 00:45:20;;;;;;;2.60;2.40;;;;;;;25.24;68.44;101278.94;4974304;28;20042;-82
2023/08/11 00:47:49;;;;;;;34.28;4.03;;;;;;;25.23;69.11;101277.34;4973883;28;20058;-82
2023/08/11 00:50:17;;;;;;;5.93;2.72;;;;;;;25.24;68.70;101273.34;4975944;28;20054;-81
2023/08/11 00:52:46;;;;;;;4.88;2.95;;;;;;;25.19;69.45;101280.06;4976939;28;20069;-81
2023/08/11 00:55:14;;;;;;;2.97;2.63;;;;;;;25.28;69.18;101274.25;4992544;28;20058;-82
2023/08/11 00:57:42;;;;;;;2.92;2.25;;;;;;;25.34;68.69;101277.56;4985776;28;20052;-81
2023/08/11 01:00:14;;;;;;;4.13;2.55;;;;;;;25.22;68.76;101276.50;4978319;28;20573;-81
2023/08/11 01:02:44;;;;;;;3.00;2.50;;;;;;;25.26;68.59;101279.38;4993525;28;20121;-82
2023/08/11 01:05:17;;;;;;;3.15;2.80;;;;;;;25.15;69.12;101276.34;4975008;28;20050;-81
2023/08/11 01:07:56;;;;;;;2.70;2.47;;;;;;;25.20;69.01;101275.25;4975903;28;20051;-82
2023/08/11 01:10:52;;;;;;;3.00;2.65;;;;;;;25.09;69.97;101272.19;4991670;28;20054;-81
2023/08/11 01:13:20;;;;;;;4.30;2.83;;;;;;;25.09;69.73;101272.19;4991867;28;20035;-81
2023/08/11 01:15:57;;;;;;;3.35;2.53;;;;;;;25.15;69.72;101276.34;4993276;28;20046;-81
2023/08/11 01:18:30;;;;;;;2.83;2.60;;;;;;;25.15;69.82;101273.53;4975699;28;20049;-81
2023/08/11 01:21:08;;;;;;;2.63;2.42;;;;;;;25.16;69.62;101272.38;4975737;28;20038;-81
2023/08/11 01:23:37;;;;;;;3.58;2.35;;;;;;;25.19;69.67;101266.06;4975488;28;20050;-81
2023/08/11 01:26:05;;;;;;;2.95;2.47;;;;;;;25.17;69.45;101273.19;4992027;28;20054;-81
2023/08/11 01:28:35;;;;;;;3.30;2.35;;;;;;;24.88;70.59;101264.91;4972545;28;20406;-81
2023/08/11 01:31:05;;;;;;;3.80;2.45;;;;;;;25.07;69.88;101272.56;4973626;28;20084;-81
2023/08/11 01:33:33;;;;;;;4.38;2.83;;;;;;;25.08;70.31;101264.97;4956304;28;20054;-81
2023/08/11 01:36:01;;;;;;;2.33;2.22;;;;;;;25.04;70.14;101276.09;4973524;28;20046;-81
2023/08/11 01:38:30;;;;;;;5.88;2.60;;;;;;;25.20;69.33;101278.03;4973056;28;20047;-82
2023/08/11 01:40:57;;;;;;;3.75;2.35;;;;;;;25.32;69.04;101274.34;4972726;28;20081;-82
2023/08/11 01:43:28;;;;;;;2.25;2.15;;;;;;;25.16;69.37;101277.97;4972472;28;20042;-81
2023/08/11 01:45:57;;;;;;;2.78;2.58;;;;;;;25.26;69.22;101282.19;4973122;28;20054;-82
2023/08/11 01:48:26;;;;;;;5.25;2.63;;;;;;;25.21;69.32;101274.06;4972996;28;20395;-82
2023/08/11 01:50:54;;;;;;;3.65;2.38;;;;;;;25.03;69.99;101273.66;4973156;28;20039;-81
2023/08/11 01:53:22;;;;;;;4.38;2.42;;;;;;;25.15;69.97;101276.34;4973004;28;20049;-82
2023/08/11 01:55:50;;;;;;;3.45;2.30;;;;;;;25.16;69.99;101269.56;4955908;28;20058;-82
2023/08/11 01:58:19;;;;;;;2.88;2.30;;;;;;;25.03;70.24;101273.66;4971701;28;20046;-82
2023/08/11 02:00:46;;;;;;;3.95;2.65;;;;;;;25.02;70.58;101272.84;4955268;28;20051;-81
2023/08/11 02:03:14;;;;;;;3.10;2.47;;;;;;;25.05;70.74;101265.69;4972895;28;20039;-82
2023/08/11 02:05:43;;;;;;;4.47;2.63;;;;;;;25.12;69.12;101273.47;4972191;28;20055;-81
2023/08/11 02:08:17;;;;;;;2.70;2.50;;;;;;;25.11;69.52;101281.03;4970808;28;20068;-81
2023/08/11 02:10:45;;;;;;;3.60;2.72;;;;;;;24.99;70.54;101270.78;4955939;28;20045;-81
2023/08/11 02:13:13;;;;;;;7.40;3.38;;;;;;;25.12;69.50;101271.47;4955357;28;20537;-82
2023/08/11 02:15:41;;;;;;;8.90;3.10;;;;;;;25.13;69.91;101267.50;4972997;28;20055;-81
2023/08/11 02:18:09;;;;;;;5.18;2.25;;;;;;;25.01;70.38;101261.97;4971848;28;20054;-81
2023/08/11 02:20:37;;;;;;;5.72;2.78;;;;;;;24.92;70.89;101265.81;4972183;28;20070;-81
2023/08/11 02:23:05;;;;;;;7.10;2.83;;;;;;;25.07;71.03;101272.56;4957451;28;20054;-82
2023/08/11 02:25:33;;;;;;;12.38;3.30;;;;;;;25.01;71.54;101268.41;4972313;28;20418;-83
2023/08/11 02:28:02;;;;;;;6.63;2.63;;;;;;;25.00;71.45;101269.59;4972662;28;20047;-83
2023/08/11 02:30:30;;;;;;;4.28;2.58;;;;;;;25.08;71.09;101271.38;4970284;28;20081;-82
2023/08/11 02:32:59;;;;;;;9.05;2.70;;;;;;;25.19;71.62;101268.03;4955043;28;20059;-82
2023/08/11 02:35:27;;;;;;;3.38;2.88;;;;;;;25.14;71.42;101271.09;4972214;28;20057;-82
2023/08/11 02:37:55;;;;;;;3.08;2.83;;;;;;;25.02;72.33;101272.84;4972556;28;20050;-82
2023/08/11 02:40:23;;;;;;;3.63;2.40;;;;;;;25.08;72.72;101270.59;4972425;28;20422;-82
2023/08/11 02:42:58;;;;;;;3.10;2.40;;;;;;;25.07;72.86;101274.56;4955289;28;20416;-82
2023/08/11 02:45:28;;;;;;;4.35;2.90;;;;;;;25.01;72.65;101273.19;4955321;28;20043;-83
2023/08/11 02:47:56;;;;;;;3.70;2.45;;;;;;;25.00;73.55;101277.16;4972246;28;20050;-83
2023/08/11 02:50:24;;;;;;;3.20;2.55;;;;;;;24.92;74.25;101271.41;4954636;28;20055;-82
2023/08/11 02:52:52;;;;;;;2.60;2.40;;;;;;;24.94;74.84;101276.66;4972387;28;20051;-82
2023/08/11 02:55:20;;;;;;;2.60;2.40;;;;;;;24.95;74.81;101273.50;4971606;28;20054;-83
2023/08/11 02:57:48;;;;;;;3.78;2.50;;;;;;;24.58;75.97;101273.72;4972182;28;20054;-83
2023/08/11 03:00:17;;;;;;;3.05;2.83;;;;;;;24.82;75.75;101269.97;4974906;28;20054;-82
2023/08/11 03:02:45;;;;;;;2.67;2.25;;;;;;;24.75;75.69;101272.56;4994995;28;20055;-82
2023/08/11 03:05:15;;;;;;;3.05;2.28;;;;;;;24.83;75.88;101273.59;5009941;28;20039;-83
2023/08/11 03:07:45;;;;;;;2.78;2.58;;;;;;;24.78;76.28;101269.03;4989037;28;20054;-83
2023/08/11 03:10:13;;;;;;;6.97;2.72;;;;;;;24.66;76.49;101267.13;4995433;28;20479;-83
2023/08/11 03:12:43;;;;;;;3.22;2.70;;;;;;;24.80;76.16;101266.69;4977232;28;20057;-83
2023/08/11 03:15:11;;;;;;;2.97;2.78;;;;;;;24.83;76.13;101270.78;4995481;28;20047;-82
2023/08/11 03:17:39;;;;;;;2.58;2.47;;;;;;;24.89;75.12;101274.94;5004821;28;20042;-83
2023/08/11 03:20:15;;;;;;;4.03;2.60;;;;;;;24.86;75.50;101269.22;4985010;28;20046;-83
2023/08/11 03:22:45;;;;;;;2.50;2.20;;;;;;;24.70;77.07;101272.81;4978094;28;20043;-84
2023/08/11 03:25:17;;;;;;;4.57;2.60;;;;;;;24.67;76.93;101268.75;4973952;28;20046;-81
2023/08/11 03:27:44;;;;;;;4.30;2.63;;;;;;;24.76;76.56;101270.56;4962008;28;20505;-82
2023/08/11 03:30:19;;;;;;;2.58;2.35;;;;;;;24.77;77.00;101273.00;4971670;28;20522;-82
2023/08/11 03:32:51;;;;;;;2.60;2.40;;;;;;;24.83;76.83;101277.19;4972802;28;20397;-83
2023/08/11 03:35:21;;;;;;;2.58;2.35;;;;;;;24.91;77.23;101278.19;4990551;28;20054;-82
2023/08/11 03:37:51;;;;;;;2.70;2.50;;;;;;;24.90;76.26;101281.34;4980462;28;20050;-83
2023/08/11 03:40:19;;;;;;;3.00;2.67;;;;;;;24.76;76.47;101284.56;4994305;28;20489;-83
2023/08/11 03:42:53;;;;;;;3.00;2.80;;;;;;;24.71;77.25;101291.25;5010120;28;20504;-83
2023/08/11 03:45:22;;;;;;;2.55;2.33;;;;;;;24.56;78.77;101284.47;4994220;28;20501;-83
2023/08/11 03:47:50;;;;;;;2.70;2.50;;;;;;;24.62;78.01;101285.81;4994123;28;20046;-83
2023/08/11 03:50:23;;;;;;;3.03;2.83;;;;;;;24.60;77.59;101288.16;4977604;28;20398;-83
2023/08/11 03:52:51;;;;;;;5.00;2.58;;;;;;;24.62;76.95;101288.63;4996101;28;20402;-84
2023/08/11 03:55:19;;;;;;;4.38;2.85;;;;;;;24.39;79.12;101296.81;4977503;28;20046;-83
2023/08/11 03:57:48;;;;;;;4.95;3.40;;;;;;;24.56;77.72;101299.28;4993271;28;20039;-83
2023/08/11 04:00:19;;;;;;;2.83;2.63;;;;;;;24.64;78.34;101296.66;4976832;28;20050;-83
2023/08/11 04:03:01;;;;;;;2.75;2.40;;;;;;;24.68;78.01;101298.38;4976737;28;20047;-83
2023/08/11 04:05:30;;;;;;;4.45;2.90;;;;;;;24.61;77.58;101298.19;4977187;28;20054;-83
2023/08/11 04:07:58;;;;;;;5.85;2.60;;;;;;;24.73;77.73;101296.47;4994371;28;20401;-83
2023/08/11 04:10:26;;;;;;;2.88;2.67;;;;;;;24.74;77.52;101296.13;4993583;28;20409;-83
2023/08/11 04:12:54;;;;;;;5.25;2.90;;;;;;;24.78;77.55;101301.81;4994507;28;20042;-83
2023/08/11 04:15:24;;;;;;;4.43;2.40;;;;;;;24.78;77.72;101296.22;5008718;28;20065;-83
2023/08/11 04:17:52;;;;;;;3.67;3.08;;;;;;;24.75;77.77;101303.34;4976048;28;20050;-83
2023/08/11 04:20:22;;;;;;;3.00;2.75;;;;;;;24.64;78.16;101303.03;4976807;28;20502;-83
2023/08/11 04:22:51;;;;;;;3.28;2.67;;;;;;;24.57;79.42;101300.06;4976869;28;20038;-83
2023/08/11 04:25:19;;;;;;;3.55;3.03;;;;;;;24.58;78.71;101307.28;4992899;28;20046;-83
2023/08/11 04:27:48;;;;;;;4.85;2.92;;;;;;;24.67;78.75;101302.34;4975755;28;20053;-83
2023/08/11 04:30:16;;;;;;;4.75;3.05;;;;;;;24.51;79.38;101313.53;4975926;28;20046;-83
2023/08/11 04:32:46;;;;;;;3.45;3.10;;;;;;;24.59;79.23;101308.09;5009311;28;20045;-83
2023/08/11 04:35:16;;;;;;;4.60;3.45;;;;;;;24.52;78.88;101312.34;4993334;28;20053;-83
2023/08/11 04:37:44;;;;;;;4.18;3.08;;;;;;;24.64;79.45;101311.44;4975366;28;20046;-82
2023/08/11 04:40:16;;;;;;;5.75;3.63;;;;;;;24.61;78.62;101319.75;4960319;28;20051;-83
2023/08/11 04:42:46;;;;;;;6.25;3.30;;;;;;;24.70;78.51;101318.41;4976363;28;20586;-83
2023/08/11 04:45:20;;;;;;;6.10;3.63;;;;;;;24.47;79.22;101322.97;4993348;28;20050;-83
2023/08/11 04:47:48;;;;;;;4.10;3.63;;;;;;;24.37;80.33;101327.94;4975763;28;20053;-83
2023/08/11 04:50:19;;;;;;;3.72;2.72;;;;;;;24.48;80.09;101330.22;4976110;28;20051;-83
2023/08/11 04:52:52;;;;;;;5.70;3.35;;;;;;;24.46;80.14;101327.75;4976473;28;20043;-83
2023/08/11 04:55:19;;;;;;;7.25;3.45;;;;;;;24.54;79.81;101331.56;4992812;28;20081;-83
2023/08/11 04:57:48;;;;;;;6.53;3.50;;;;;;;24.47;80.56;101331.34;4976238;28;20046;-83
2023/08/11 05:00:17;;;;;;;4.90;3.28;;;;;;;24.61;80.30;101330.94;4976126;28;20051;-82
2023/08/11 05:02:45;;;;;;;3.92;3.58;;;;;;;24.55;80.42;101327.59;4992798;28;20054;-84
2023/08/11 05:05:14;;;;;;;4.65;3.22;;;;;;;24.71;79.84;101324.81;4992696;28;20374;-85
2023/08/11 05:07:42;;;;;;;5.93;3.80;;;;;;;24.61;79.78;101337.34;4993151;28;20494;-86
2023/08/11 05:10:10;;;;;;;7.80;4.10;;;;;;;24.55;79.89;101336.00;4992236;28;20065;-86
2023/08/11 05:12:38;;;;;;;4.90;4.32;;;;;;;24.62;79.82;101329.75;4993029;28;20042;-86
2023/08/11 05:15:07;;;;;;;6.35;4.93;;;;;;;24.58;80.70;101335.25;4975737;28;20054;-86
2023/08/11 05:17:35;;;;;;;5.32;4.50;;;;;;;24.67;80.28;101324.72;4992924;28;20049;-85
2023/08/11 05:20:07;;;;;;;11.93;5.32;;;;;;;24.75;80.36;101330.50;4992929;28;20049;-85
2023/08/11 05:22:36;;;;;;;8.38;5.93;;;;;;;24.65;80.49;101331.84;4994394;28;20061;-83
2023/08/11 05:25:05;;;;;;;8.75;5.47;;;;;;;24.62;80.62;101332.56;4992834;28;20419;-85
2023/08/11 05:27:33;;;;;;;7.78;5.32;;;;;;;24.65;81.41;101343.88;4992128;28;20051;-86
2023/08/11 05:30:01;;;;;;;8.18;5.18;;;;;;;24.72;81.23;101359.22;4991963;28;20051;-86
2023/08/11 05:32:29;;;;;;;9.50;5.30;;;;;;;24.77;80.39;101350.53;4992508;28;20050;-84
2023/08/11 05:34:58;;;;;;;6.20;4.63;;;;;;;24.91;80.38;101353.75;4993087;28;20049;-83
2023/08/11 05:37:27;;;;;;;7.78;4.30;;;;;;;25.07;79.12;101348.16;4992742;28;20049;-86
2023/08/11 05:39:55;;;;;;;9.90;4.60;;;;;;;25.01;79.51;101354.38;4984425;28;20042;-85
2023/08/11 05:42:23;;;;;;;7.05;4.65;;;;;;;25.00;79.32;101347.97;4990947;28;20054;-84
2023/08/11 05:44:51;;;;;;;6.90;5.18;;;;;;;25.11;78.44;101353.84;4990818;28;20061;-86
2023/08/11 05:47:19;;;;;;;6.78;5.43;;;;;;;25.17;78.03;101358.00;4992854;28;20494;-85
2023/08/11 05:49:47;;;;;;;10.30;6.43;;;;;;;25.25;77.41;101358.16;4992624;28;20042;-86
2023/08/11 05:52:15;;;;;;;8.55;5.72;;;;;;;25.19;77.22;101361.25;4992338;28;20061;-86
2023/08/11 05:54:43;;;;;;;6.75;5.65;;;;;;;25.34;76.66;101367.19;4992153;28;20038;-85
2023/08/11 05:57:12;;;;;;;6.18;5.05;;;;;;;25.41;76.45;101358.97;4991583;28;20053;-86
2023/08/11 05:59:40;;;;;;;5.53;5.00;;;;;;;25.55;75.49;101368.94;4991908;28;20046;-85
2023/08/11 06:02:08;;;;;;;9.55;5.28;;;;;;;25.42;76.08;101363.38;4993466;28;20061;-86
2023/08/11 06:04:38;;;;;;;5.47;4.72;;;;;;;25.46;75.78;101367.09;4991143;28;20042;-85
2023/08/11 06:07:07;;;;;;;5.43;4.80;;;;;;;25.55;75.38;101375.34;4992448;28;20062;-86
2023/08/11 06:09:36;;;;;;;9.88;5.40;;;;;;;25.64;75.50;101375.13;4990914;28;20410;-84
2023/08/11 06:12:05;;;;;;;5.97;4.68;;;;;;;25.46;73.55;101378.31;4973236;28;20046;-82
2023/08/11 06:14:33;;;;;;;7.88;4.75;;;;;;;25.81;73.36;101367.50;4991355;28;20077;-85
2023/08/11 06:17:03;;;;;;;5.70;4.10;;;;;;;25.94;72.75;101374.59;4992755;28;20058;-84
2023/08/11 06:19:31;;;;;;;6.63;4.30;;;;;;;25.96;72.47;101380.66;4991549;28;20057;-84
2023/08/11 06:21:59;;;;;;;6.93;4.03;;;;;;;25.98;72.09;101380.28;4992262;28;20077;-84
2023/08/11 06:24:29;;;;;;;3.90;3.50;;;;;;;26.07;70.70;101382.88;4991885;28;20405;-84
2023/08/11 06:26:57;;;;;;;4.45;4.03;;;;;;;26.23;70.75;101380.84;4991717;28;20073;-82
2023/08/11 06:29:25;;;;;;;4.35;3.67;;;;;;;26.29;69.82;101375.75;4984378;28;20059;-83
2023/08/11 06:31:54;;;;;;;4.20;3.10;;;;;;;26.43;69.24;101383.63;4991301;28;20497;-83
2023/08/11 06:34:22;;;;;;;3.92;3.53;;;;;;;26.49;69.29;101390.56;4976485;28;20061;-84
2023/08/11 06:36:51;;;;;;;3.88;3.33;;;;;;;26.51;69.31;101393.84;4976650;28;20058;-84
2023/08/11 06:39:20;;;;;;;5.95;3.92;;;;;;;26.50;69.54;101395.03;4976583;28;20085;-84
2023/08/11 06:41:48;;;;;;;3.70;3.38;;;;;;;26.47;69.25;101387.34;4977515;28;20070;-84
2023/08/11 06:44:16;;;;;;;4.10;3.10;;;;;;;26.52;68.64;101395.47;4976465;28;20054;-84
2023/08/11 06:46:45;;;;;;;3.45;3.15;;;;;;;26.62;67.60;101390.41;4976425;28;20517;-83
2023/08/11 06:49:13;;;;;;;3.30;2.90;;;;;;;26.62;65.69;101398.84;4976737;28;20062;-84
2023/08/11 06:51:42;;;;;;;5.80;3.10;;;;;;;26.72;66.00;101398.22;4976467;28;20078;-84
2023/08/11 06:54:10;;;;;;;3.17;2.90;;;;;;;26.83;63.69;101398.44;4977048;28;20051;-82
2023/08/11 06:56:39;;;;;;;3.25;2.60;;;;;;;26.93;62.63;101395.03;4976004;28;20058;-83
2023/08/11 06:59:07;;;;;;;3.22;2.40;;;;;;;26.88;61.47;101400.94;4976887;28;20519;-84
2023/08/11 07:01:36;;;;;;;2.60;2.17;;;;;;;26.90;60.95;101397.75;4977760;28;20043;-83
2023/08/11 07:04:04;;;;;;;6.35;2.53;;;;;;;26.98;61.40;101399.56;4975487;28;20517;-81
2023/08/11 07:06:33;;;;;;;3.38;2.70;;;;;;;26.91;60.94;101405.00;4974743;28;20521;-80
2023/08/11 07:09:01;;;;;;;5.68;3.30;;;;;;;26.95;61.28;101394.66;4974501;28;20055;-81
2023/08/11 07:11:30;;;;;;;4.63;2.30;;;;;;;26.91;59.48;101402.19;4975309;28;20057;-81
2023/08/11 07:13:58;;;;;;;4.07;2.47;;;;;;;26.95;59.93;101403.09;4975726;28;20047;-81
2023/08/11 07:16:26;;;;;;;4.40;2.58;;;;;;;26.92;58.74;101401.84;4974343;28;20433;-82
2023/08/11 07:18:55;;;;;;;3.28;2.35;;;;;;;26.93;58.84;101402.66;4974342;28;20051;-81
2023/08/11 07:21:23;;;;;;;4.03;2.80;;;;;;;26.88;58.20;101414.97;4974388;28;20054;-81
2023/08/11 07:23:51;;;;;;;3.80;2.53;;;;;;;27.08;58.49;101409.34;4974971;28;20067;-82
2023/08/11 07:26:20;;;;;;;2.53;2.33;;;;;;;27.26;58.95;101409.63;4975418;28;20061;-82
2023/08/11 07:28:49;;;;;;;2.47;2.28;;;;;;;27.25;56.32;101408.03;4978122;28;20047;-81
2023/08/11 07:31:17;;;;;;;2.20;2.00;;;;;;;27.44;58.17;101417.56;4995046;28;20050;-81
2023/08/11 07:33:45;;;;;;;3.20;2.53;;;;;;;27.47;55.97;101414.00;4977764;28;20055;-81
2023/08/11 07:36:14;;;;;;;2.90;2.30;;;;;;;27.40;58.27;101414.69;4993966;28;20057;-81
2023/08/11 07:38:42;;;;;;;4.07;2.53;;;;;;;27.55;57.45;101421.34;4994391;28;20051;-81
2023/08/11 07:41:10;;;;;;;2.40;2.20;;;;;;;27.47;58.53;101414.81;4994197;28;20050;-82
2023/08/11 07:43:39;;;;;;;3.38;2.65;;;;;;;27.43;57.96;101421.56;4993737;28;20058;-80
2023/08/11 07:46:07;;;;;;;2.50;2.30;;;;;;;27.50;59.99;101418.84;4995039;28;20058;-81
2023/08/11 07:48:36;;;;;;;2.67;2.03;;;;;;;27.58;57.39;101423.44;4994861;28;20054;-82
2023/08/11 07:51:04;;;;;;;3.85;2.10;;;;;;;27.67;54.69;101420.38;4993756;28;20050;-82
2023/08/11 07:53:32;;;;;;;4.57;2.22;;;;;;;27.79;55.96;101427.75;4995016;28;20144;-81
2023/08/11 07:56:01;;;;;;;2.60;1.77;;;;;;;27.79;54.64;101421.31;4992265;28;20050;-81
2023/08/11 07:58:29;;;;;;;3.03;2.53;;;;;;;27.71;53.94;101426.84;4993529;28;20058;-83
2023/08/11 08:00:58;;;;;;;2.30;2.10;;;;;;;27.87;55.00;101426.66;4993886;28;20054;-83
2023/08/11 08:03:26;;;;;;;4.25;1.92;;;;;;;28.01;54.90;101426.06;4994764;28;20080;-81
2023/08/11 08:05:55;;;;;;;4.85;1.88;;;;;;;28.02;54.11;101424.06;4986006;28;20054;-82
2023/08/11 08:08:23;;;;;;;3.67;2.10;;;;;;;27.93;51.13;101432.78;4993081;28;20050;-80
2023/08/11 08:10:52;;;;;;;5.63;2.03;;;;;;;27.70;51.48;101432.88;4994393;28;20058;-81
2023/08/11 08:13:20;;;;;;;2.60;1.80;;;;;;;27.74;52.63;101437.34;4993725;28;20058;-81
2023/08/11 08:15:49;;;;;;;2.38;1.98;;;;;;;27.77;50.18;101438.59;4993122;28;20057;-82
2023/08/11 08:18:17;;;;;;;1.67;1.55;;;;;;;27.94;49.98;101433.63;4992982;28;20375;-84
2023/08/11 08:20:46;;;;;;;1.73;1.63;;;;;;;27.95;50.38;101438.03;4991257;28;20050;-80
2023/08/11 08:23:15;;;;;;;2.30;1.90;;;;;;;28.08;48.79;101439.44;4993556;28;20413;-82
2023/08/11 08:25:43;;;;;;;3.30;1.77;;;;;;;27.95;48.95;101435.22;4993581;28;20433;-80
2023/08/11 09:02:28;;;;;;;2.20;2.00;;;;;;;28.46;47.96;101455.59;5345718;23;20057;-78
2023/08/11 09:04:56;;;;;;;1.65;1.33;;;;;;;28.45;48.51;101452.00;5031711;28;20504;-79
2023/08/11 09:07:24;;;;;;;2.45;2.00;;;;;;;28.55;48.29;101447.69;5033039;28;20049;-80
2023/08/11 09:09:53;;;;;;;2.35;1.98;;;;;;;28.68;48.53;101451.03;5031924;28;20049;-79
2023/08/11 09:12:21;;;;;;;2.65;2.00;;;;;;;28.70;49.71;101438.19;5025463;28;20041;-78
2023/08/11 09:14:49;;;;;;;2.50;2.00;;;;;;;28.80;48.84;101436.72;5014256;28;20058;-79
2023/08/11 09:17:18;;;;;;;2.30;1.85;;;;;;;28.90;48.62;101440.88;5014165;28;20057;-79
2023/08/11 09:19:51;;;;;;;2.10;1.98;;;;;;;28.95;48.05;101443.34;5031354;28;20419;-80
2023/08/11 09:22:25;;;;;;;3.80;1.80;;;;;;;29.07;48.42;101455.50;5031504;28;20391;-81
2023/08/11 09:24:55;;;;;;;2.20;2.00;;;;;;;29.13;48.59;101442.69;5023049;28;20396;-80
2023/08/11 09:27:24;;;;;;;2.25;1.95;;;;;;;29.10;47.92;101444.28;5031071;28;20404;-80
2023/08/11 09:29:55;;;;;;;2.40;1.98;;;;;;;29.05;48.77;101443.81;5026911;28;20376;-81
2023/08/11 09:32:24;;;;;;;2.72;2.10;;;;;;;29.07;48.30;101445.06;5051688;28;20060;-79
2023/08/11 09:34:54;;;;;;;4.75;2.78;;;;;;;28.84;48.36;101446.00;5051219;28;20053;-81
2023/08/11 09:37:23;;;;;;;2.22;2.05;;;;;;;28.94;48.71;101444.50;5051724;28;20076;-79
2023/08/11 09:39:55;;;;;;;2.40;1.85;;;;;;;28.83;48.92;101446.38;5051423;28;20057;-79
2023/08/11 09:42:26;;;;;;;2.43;2.07;;;;;;;28.66;47.39;101443.00;5051447;28;20112;-80
2023/08/11 09:44:55;;;;;;;5.20;2.50;;;;;;;28.87;49.57;101438.03;5051363;28;20053;-81
2023/08/11 09:47:23;;;;;;;3.35;2.20;;;;;;;29.12;48.21;101441.06;5050699;28;20045;-80
2023/08/11 09:49:51;;;;;;;2.33;2.10;;;;;;;29.12;48.82;101443.88;5051836;28;20448;-80
2023/08/11 09:52:19;;;;;;;3.80;2.10;;;;;;;29.13;48.07;101441.88;5051734;28;20049;-80
2023/08/11 09:54:49;;;;;;;4.28;2.55;;;;;;;29.23;47.16;101450.41;5065884;28;20052;-80
2023/08/11 09:57:21;;;;;;;3.13;2.83;;;;;;;29.22;48.40;101440.34;5033213;28;20052;-80
2023/08/11 09:59:53;;;;;;;2.30;2.20;;;;;;;29.24;48.55;101440.75;5051529;28;20079;-79
2023/08/11 10:02:25;;;;;;;1.80;1.70;;;;;;;29.39;48.36;101438.09;5051778;28;20049;-79
2023/08/11 10:04:58;;;;;;;2.58;1.95;;;;;;;29.53;47.83;101436.59;5050725;28;20454;-80
2023/08/11 10:07:34;;;;;;;2.30;2.10;;;;;;;29.66;47.54;101442.75;5054587;28;20049;-81
2023/08/11 10:10:13;;;;;;;2.67;2.03;;;;;;;29.74;47.41;101442.41;5057688;28;20057;-80
2023/08/11 10:12:47;;;;;;;4.43;2.10;;;;;;;29.73;47.26;101437.16;5058991;28;20052;-80
2023/08/11 10:15:19;;;;;;;2.15;1.95;;;;;;;29.76;47.56;101450.47;5058914;28;20099;-80
2023/08/11 10:17:48;;;;;;;2.85;2.17;;;;;;;29.78;47.90;101442.41;5058081;28;20194;-80
2023/08/11 10:20:17;;;;;;;2.75;2.40;;;;;;;29.72;47.15;101433.50;5058148;28;20052;-81
2023/08/11 10:22:45;;;;;;;4.68;2.67;;;;;;;29.82;46.69;101446.09;5058296;28;20049;-78
2023/08/11 10:25:14;;;;;;;3.45;2.30;;;;;;;29.84;47.34;101437.22;5058109;28;20057;-79
2023/08/11 10:27:43;;;;;;;3.05;2.22;;;;;;;29.89;46.89;101445.31;5059037;28;20052;-81
2023/08/11 10:30:14;;;;;;;2.78;2.58;;;;;;;29.95;46.88;101443.72;5057721;28;20060;-81
2023/08/11 10:32:42;;;;;;;4.13;2.30;;;;;;;30.07;47.75;101445.41;5057580;28;20403;-80
2023/08/11 10:35:25;;;;;;;2.47;2.20;;;;;;;30.30;45.91;101438.72;5057598;28;20411;-78
2023/08/11 10:37:57;;;;;;;4.15;2.40;;;;;;;30.38;46.38;101436.69;5057328;28;20057;-79
2023/08/11 10:40:37;;;;;;;5.68;2.30;;;;;;;30.48;45.84;101433.13;5057025;28;20407;-80
2023/08/11 10:43:06;;;;;;;2.05;1.75;;;;;;;30.51;45.67;101435.16;5057495;28;20049;-80
2023/08/11 10:45:36;;;;;;;4.43;2.25;;;;;;;30.54;46.61;101437.16;5057078;28;20053;-79
2023/08/11 10:48:09;;;;;;;1.83;1.73;;;;;;;30.70;46.55;101438.88;5039280;28;20049;-80
2023/08/11 10:50:38;;;;;;;2.92;2.42;;;;;;;30.62;44.75;101431.53;5057502;28;20072;-80
2023/08/11 10:53:10;;;;;;;2.83;2.00;;;;;;;30.80;44.46;101426.75;5057203;28;20053;-80
2023/08/11 10:55:39;;;;;;;5.28;2.60;;;;;;;30.92;46.34;101424.75;5058194;28;20041;-80
2023/08/11 10:58:17;;;;;;;2.40;2.20;;;;;;;31.01;45.49;101430.03;5057595;28;20057;-80
2023/08/11 11:00:46;;;;;;;2.55;2.30;;;;;;;31.02;44.05;101429.63;5057662;28;20078;-81
2023/08/11 11:03:14;;;;;;;3.28;2.25;;;;;;;31.03;43.88;101425.59;5039423;28;20057;-79
2023/08/11 11:05:43;;;;;;;5.30;2.30;;;;;;;31.09;44.28;101429.63;5057389;28;20060;-78
2023/08/11 11:08:11;;;;;;;3.00;1.95;;;;;;;31.16;45.02;101426.00;5058018;28;20051;-81
2023/08/11 11:10:41;;;;;;;3.00;2.50;;;;;;;31.15;44.70;101424.41;5057448;28;20052;-81
2023/08/11 11:13:17;;;;;;;2.38;2.17;;;;;;;31.24;44.74;101421.16;5057809;28;20065;-80
2023/08/11 11:15:46;;;;;;;2.78;2.58;;;;;;;31.15;44.10;101413.09;5057867;28;20049;-81
2023/08/11 11:18:15;;;;;;;3.40;2.63;;;;;;;31.26;44.96;101418.72;5056368;28;20064;-80
2023/08/11 11:20:44;;;;;;;3.55;2.38;;;;;;;31.29;44.26;101411.50;5053891;28;20513;-80
2023/08/11 11:23:12;;;;;;;3.67;2.30;;;;;;;31.36;44.15;101422.78;5036638;28;20068;-80
2023/08/11 11:25:40;;;;;;;2.38;2.17;;;;;;;31.43;44.53;101410.69;5055086;28;20044;-81
2023/08/11 11:28:11;;;;;;;2.55;2.35;;;;;;;31.53;44.48;101409.88;5070385;28;20049;-82
2023/08/11 11:30:40;;;;;;;2.40;2.20;;;;;;;31.49;44.06;101407.03;5054997;28;20045;-82
2023/08/11 11:33:08;;;;;;;2.47;2.28;;;;;;;31.37;44.58;101402.59;5053750;28;20396;-79
2023/08/11 11:35:36;;;;;;;2.72;2.53;;;;;;;31.42;43.68;101407.03;5055226;28;20057;-81
2023/08/11 11:38:06;;;;;;;2.45;2.25;;;;;;;31.22;43.73;101406.59;5054942;28;20049;-82
2023/08/11 11:40:34;;;;;;;2.60;2.40;;;;;;;30.97;43.50;101401.75;5054812;28;20067;-81
2023/08/11 11:43:02;;;;;;;2.75;2.25;;;;;;;31.24;44.22;101418.34;5053842;28;20080;-82
2023/08/11 11:45:31;;;;;;;2.50;2.30;;;;;;;31.29;44.41;101406.66;5053721;28;20399;-81
2023/08/11 11:47:59;;;;;;;3.70;1.92;;;;;;;31.37;44.05;101402.59;5053437;28;20493;-81
2023/08/11 11:50:29;;;;;;;2.97;2.28;;;;;;;31.43;43.56;101399.38;5054388;28;20434;-81
2023/08/11 11:52:57;;;;;;;3.00;2.00;;;;;;;31.37;45.01;101404.59;5019984;28;20400;-81
2023/08/11 11:55:26;;;;;;;2.42;2.03;;;;;;;31.51;44.19;101406.63;5054112;28;20104;-80
2023/08/11 11:57:56;;;;;;;2.17;1.90;;;;;;;31.69;43.63;101400.13;5053422;28;20045;-81
2023/08/11 12:00:25;;;;;;;4.78;2.35;;;;;;;31.57;43.78;101402.16;5036161;28;20053;-82
2023/08/11 12:02:54;;;;;;;3.95;2.38;;;;;;;31.26;43.07;101392.50;5035979;28;20076;-82
2023/08/11 12:05:22;;;;;;;3.78;2.30;;;;;;;31.67;42.32;101399.72;5053542;28;20053;-84
2023/08/11 12:07:50;;;;;;;3.78;2.25;;;;;;;31.50;41.37;101400.19;5053275;28;20045;-83